Time,TemperatureF,DewpointF,PressureIn,WindDirection,WindDirectionDegrees,WindSpeedMPH,WindSpeedGustMPH,Humidity,HourlyPrecipIn,Conditions,Clouds,dailyrainin,SolarRadiationWatts/m^2,SoftwareType,DateUTC
2013-08-15 00:01:00,67.8,63.5,30.04,NE,34,3.3,6.9,86,0.00,CLR,OVC,1.00,0.0,WeatherDisplay:10.37,2013-08-15 04:01:00,
2013-08-15 00:06:00,67.9,63.6,30.04,NNE,17,4.0,6.0,86,0.00,RA,OVC,0.00,0.0,WeatherDisplay:10.37,2013-08-15 04:06:00,
2013-08-15 00:11:00,67.9,63.6,30.04,NE,34,1.8,5.8,86,0.00,RA,OVC,0.00,0.0,WeatherDisplay:10.37,2013-08-15 04:11:00,
2013-08-15 00:16:00,67.9,63.2,30.04,ENE,60,2.4,5.8,85,0.00,CLR,OVC,0.00,0.0,WeatherDisplay:10.37,2013-08-15 04:16:00,
2013-08-15 00:21:00,67.9,63.2,30.04,NNE,20,0.3,3.5,85,0.00,CLR,OVC,0.00,0.0,WeatherDisplay:10.37,2013-08-15 04:21:00,
2013-08-15 00:26:00,67.8,63.1,30.04,NE,51,0.6,3.5,85,0.00,CLR,OVC,0.00,0.0,WeatherDisplay:10.37,2013-08-15 04:26:00,
2013-08-15 00:31:00,67.8,63.1,30.04,NNE,22,0.8,3.5,85,0.00,CLR,OVC,0.00,0.0,WeatherDisplay:10.37,2013-08-15 04:31:00,
2013-08-15 00:36:00,67.7,63.4,30.04,NE,46,2.8,3.5,86,0.00,CLR,OVC,0.00,0.0,WeatherDisplay:10.37,2013-08-15 04:36:00,
2013-08-15 00:41:00,67.6,63.3,30.04,ENE,63,1.1,3.5,86,0.00,CLR,OVC,0.00,0.0,WeatherDisplay:10.37,2013-08-15 04:41:00,
2013-08-15 00:46:00,67.6,62.9,30.04,NE,49,2.8,6.9,85,0.00,CLR,OVC,0.00,0.0,WeatherDisplay:10.37,2013-08-15 04:46:00,
2013-08-15 00:51:00,67.6,63.3,30.04,NE,51,1.7,3.5,86,0.00,CLR,OVC,0.00,0.0,WeatherDisplay:10.37,2013-08-15 04:51:00,
2013-08-15 00:56:00,67.5,63.2,30.04,NE,40,1.5,3.5,86,0.00,CLR,OVC,0.00,0.0,WeatherDisplay:10.37,2013-08-15 04:56:00,
2013-08-15 01:01:00,67.5,63.2,30.05,NE,40,0.0,0.0,86,0.00,CLR,OVC,0.00,0.0,WeatherDisplay:10.37,2013-08-15 05:01:00,
2013-08-15 01:06:00,67.5,63.2,30.05,NE,36,0.2,1.1,86,0.00,CLR,OVC,0.00,0.0,WeatherDisplay:10.37,2013-08-15 05:06:00,
2013-08-15 01:11:00,67.4,63.4,30.05,NNE,28,0.2,3.5,87,0.00,CLR,OVC,0.00,0.0,WeatherDisplay:10.37,2013-08-15 05:11:00,
2013-08-15 01:16:00,67.3,63.3,30.05,NNE,12,0.5,2.3,87,0.00,CLR,OVC,0.00,0.0,WeatherDisplay:10.37,2013-08-15 05:16:00,
2013-08-15 01:21:00,67.2,63.2,30.05,ESE,115,0.1,1.1,87,0.00,CLR,OVC,0.00,0.0,WeatherDisplay:10.37,2013-08-15 05:21:00,
2013-08-15 01:26:00,67.2,63.2,30.05,East,87,0.0,0.0,87,0.00,CLR,OVC,0.00,0.0,WeatherDisplay:10.37,2013-08-15 05:26:00,
2013-08-15 01:31:00,67.1,63.1,30.06,East,82,0.0,0.0,87,0.00,CLR,OVC,0.00,0.0,WeatherDisplay:10.37,2013-08-15 05:31:00,
2013-08-15 01:36:00,67.1,63.1,30.06,North,355,0.0,3.5,87,0.00,CLR,OVC,0.00,0.0,WeatherDisplay:10.37,2013-08-15 05:36:00,
2013-08-15 01:41:00,67.1,63.4,30.05,North,360,0.7,1.1,88,0.00,CLR,OVC,0.00,0.0,WeatherDisplay:10.37,2013-08-15 05:41:00,
2013-08-15 01:46:00,67.0,63.0,30.05,ENE,61,0.1,1.1,87,0.00,CLR,OVC,0.00,0.0,WeatherDisplay:10.37,2013-08-15 05:46:00,
2013-08-15 01:51:00,66.9,63.2,30.04,ENE,59,0.1,1.1,88,0.00,CLR,OVC,0.00,0.0,WeatherDisplay:10.37,2013-08-15 05:51:00,
2013-08-15 01:56:00,66.8,63.1,30.04,NNE,20,0.4,4.0,88,0.00,CLR,OVC,0.00,0.0,WeatherDisplay:10.37,2013-08-15 05:56:00,
2013-08-15 02:01:00,66.8,63.1,30.05,ENE,63,0.0,0.0,88,0.00,CLR,OVC,0.00,0.0,WeatherDisplay:10.37,2013-08-15 06:01:00,
2013-08-15 02:06:00,66.7,63.0,30.05,NE,46,0.0,0.0,88,0.00,CLR,OVC,0.00,0.0,WeatherDisplay:10.37,2013-08-15 06:06:00,
2013-08-15 02:11:00,66.7,63.0,30.05,NNE,13,0.0,0.0,88,0.00,CLR,OVC,0.00,0.0,WeatherDisplay:10.37,2013-08-15 06:11:00,
2013-08-15 02:16:00,66.7,63.4,30.05,NNE,24,0.0,0.0,89,0.00,CLR,OVC,0.00,0.0,WeatherDisplay:10.37,2013-08-15 06:16:00,
2013-08-15 02:21:00,66.6,63.3,30.04,NE,46,0.3,2.3,89,0.00,CLR,OVC,0.00,0.0,WeatherDisplay:10.37,2013-08-15 06:21:00,
2013-08-15 02:26:00,66.5,63.2,30.04,NE,39,0.8,3.5,89,0.00,CLR,OVC,0.00,0.0,WeatherDisplay:10.37,2013-08-15 06:26:00,
2013-08-15 02:31:00,66.5,63.2,30.04,NE,53,0.4,3.5,89,0.00,CLR,OVC,0.00,0.0,WeatherDisplay:10.37,2013-08-15 06:31:00,
2013-08-15 02:36:00,66.5,63.2,30.04,North,9,0.0,0.0,89,0.00,CLR,OVC,0.00,0.0,WeatherDisplay:10.37,2013-08-15 06:36:00,
2013-08-15 02:41:00,66.5,63.5,30.04,NE,55,0.0,0.0,90,0.00,CLR,OVC,0.00,0.0,WeatherDisplay:10.37,2013-08-15 06:41:00,
2013-08-15 02:46:00,66.3,63.3,30.03,NNE,19,0.0,0.0,90,0.00,CLR,OVC,0.00,0.0,WeatherDisplay:10.37,2013-08-15 06:46:00,
2013-08-15 02:51:00,66.2,63.2,30.03,North,349,0.0,0.0,90,0.00,CLR,OVC,0.00,0.0,WeatherDisplay:10.37,2013-08-15 06:51:00,
2013-08-15 02:56:00,66.1,63.1,30.03,NE,53,0.7,3.5,90,0.00,CLR,OVC,0.00,0.0,WeatherDisplay:10.37,2013-08-15 06:56:00,
2013-08-15 03:01:00,65.9,63.2,30.03,NNE,17,0.0,0.0,91,0.00,CLR,OVC,0.00,0.0,WeatherDisplay:10.37,2013-08-15 07:01:00,
2013-08-15 03:06:00,65.8,63.1,30.03,West,261,0.0,0.0,91,0.00,CLR,OVC,0.00,0.0,WeatherDisplay:10.37,2013-08-15 07:06:00,
2013-08-15 03:12:00,65.7,63.0,30.03,ENE,69,0.7,3.5,91,0.00,CLR,OVC,0.00,0.0,WeatherDisplay:10.37,2013-08-15 07:12:00,
2013-08-15 03:17:00,65.6,62.9,30.03,ENE,71,0.4,2.3,91,0.00,CLR,OVC,0.00,0.0,WeatherDisplay:10.37,2013-08-15 07:17:00,
2013-08-15 03:22:00,65.5,63.1,30.03,NW,323,1.0,3.5,92,0.00,CLR,OVC,0.00,0.0,WeatherDisplay:10.37,2013-08-15 07:22:00,
2013-08-15 03:27:00,65.4,63.0,30.03,ENE,65,1.4,3.5,92,0.00,CLR,OVC,0.00,0.0,WeatherDisplay:10.37,2013-08-15 07:27:00,
2013-08-15 03:32:00,65.3,62.9,30.03,NW,309,1.2,3.5,92,0.00,CLR,OVC,0.00,0.0,WeatherDisplay:10.37,2013-08-15 07:32:00,
2013-08-15 03:37:00,65.3,62.9,30.03,NE,55,0.0,2.0,92,0.01,RA,OVC,0.01,0.0,WeatherDisplay:10.37,2013-08-15 07:37:00,
2013-08-15 03:42:00,65.2,63.1,30.04,ENE,74,0.5,3.5,93,0.01,RA,OVC,0.01,0.0,WeatherDisplay:10.37,2013-08-15 07:42:00,
2013-08-15 03:47:00,65.2,63.1,30.04,North,360,3.1,6.9,93,0.01,CLR,OVC,0.01,0.0,WeatherDisplay:10.37,2013-08-15 07:47:00,
2013-08-15 03:52:00,65.0,62.9,30.04,NE,35,0.4,2.0,93,0.01,CLR,OVC,0.01,0.0,WeatherDisplay:10.37,2013-08-15 07:52:00,
2013-08-15 03:57:00,64.9,62.8,30.05,NNE,24,0.5,3.5,93,0.01,CLR,OVC,0.01,0.0,WeatherDisplay:10.37,2013-08-15 07:57:00,
2013-08-15 04:02:00,64.9,62.8,30.05,NE,34,1.2,3.5,93,0.04,RA,OVC,0.04,0.0,WeatherDisplay:10.37,2013-08-15 08:02:00,
2013-08-15 04:07:00,64.7,62.9,30.05,ENE,66,1.6,5.8,94,0.06,RA,OVC,0.06,0.0,WeatherDisplay:10.37,2013-08-15 08:07:00,
2013-08-15 04:12:00,64.5,62.7,30.05,ENE,61,0.0,0.0,94,0.07,RA,OVC,0.07,0.0,WeatherDisplay:10.37,2013-08-15 08:12:00,
2013-08-15 04:17:00,64.3,62.5,30.05,ENE,58,0.0,0.0,94,0.08,RA,OVC,0.08,0.0,WeatherDisplay:10.37,2013-08-15 08:17:00,
2013-08-15 04:22:00,64.2,62.7,30.06,NNW,338,0.0,0.0,95,0.09,RA,OVC,0.09,0.0,WeatherDisplay:10.37,2013-08-15 08:22:00,
2013-08-15 04:27:00,64.1,62.6,30.06,NNW,344,0.0,0.0,95,0.10,RA,OVC,0.10,0.0,WeatherDisplay:10.37,2013-08-15 08:27:00,
2013-08-15 04:32:00,64.1,62.6,30.06,NNW,347,0.0,0.0,95,0.12,RA,OVC,0.12,0.0,WeatherDisplay:10.37,2013-08-15 08:32:00,
2013-08-15 04:37:00,64.0,62.5,30.06,NW,306,0.0,0.0,95,0.12,RA,OVC,0.14,0.0,WeatherDisplay:10.37,2013-08-15 08:37:00,
2013-08-15 04:42:00,63.9,62.4,30.06,NE,34,0.0,0.0,95,0.15,RA,OVC,0.16,0.0,WeatherDisplay:10.37,2013-08-15 08:42:00,
2013-08-15 04:47:00,63.9,62.7,30.05,NE,56,0.0,0.0,96,0.17,RA,OVC,0.18,0.0,WeatherDisplay:10.37,2013-08-15 08:47:00,
2013-08-15 04:52:00,63.7,62.5,30.05,NE,49,0.0,0.0,96,0.19,RA,OVC,0.20,0.0,WeatherDisplay:10.37,2013-08-15 08:52:00,
2013-08-15 04:57:00,63.6,62.4,30.06,NE,53,0.0,0.0,96,0.20,RA,OVC,0.21,0.0,WeatherDisplay:10.37,2013-08-15 08:57:00,
2013-08-15 05:02:00,63.5,62.3,30.06,ENE,69,0.0,1.1,96,0.18,RA,OVC,0.22,0.0,WeatherDisplay:10.37,2013-08-15 09:02:00,
2013-08-15 05:07:00,63.5,62.3,30.06,NW,310,0.0,0.0,96,0.16,RA,OVC,0.22,0.0,WeatherDisplay:10.37,2013-08-15 09:07:00,
2013-08-15 05:12:00,63.5,62.3,30.06,NE,51,0.0,0.0,96,0.16,RA,OVC,0.23,0.0,WeatherDisplay:10.37,2013-08-15 09:12:00,
2013-08-15 05:17:00,63.5,62.3,30.06,North,5,0.0,0.0,96,0.15,RA,OVC,0.23,0.0,WeatherDisplay:10.37,2013-08-15 09:17:00,
2013-08-15 05:22:00,63.5,62.3,30.07,NNE,19,0.1,3.5,96,0.14,CLR,OVC,0.23,0.0,WeatherDisplay:10.37,2013-08-15 09:22:00,
2013-08-15 05:27:00,63.5,62.6,30.07,NNE,24,0.0,0.0,97,0.14,RA,OVC,0.24,0.0,WeatherDisplay:10.37,2013-08-15 09:27:00,
2013-08-15 05:32:00,63.4,62.5,30.07,NW,307,0.2,0.0,97,0.12,RA,OVC,0.25,0.0,WeatherDisplay:10.37,2013-08-15 09:32:00,
2013-08-15 05:37:00,63.4,62.5,30.07,NE,50,3.3,4.6,97,0.12,RA,OVC,0.25,0.0,WeatherDisplay:10.37,2013-08-15 09:37:00,
2013-08-15 05:42:00,63.5,62.6,30.06,NE,50,0.2,8.1,97,0.09,RA,OVC,0.26,0.0,WeatherDisplay:10.37,2013-08-15 09:42:00,
2013-08-15 05:47:00,63.5,62.6,30.06,ENE,57,0.0,0.0,97,0.08,RA,OVC,0.26,0.0,WeatherDisplay:10.37,2013-08-15 09:47:00,
2013-08-15 05:52:00,63.5,62.6,30.06,NE,45,5.0,5.8,97,0.06,RA,OVC,0.26,0.0,WeatherDisplay:10.37,2013-08-15 09:52:00,
2013-08-15 05:57:00,63.4,62.5,30.06,NNE,28,4.2,6.9,97,0.05,CLR,OVC,0.26,0.0,WeatherDisplay:10.37,2013-08-15 09:57:00,
2013-08-15 06:02:00,63.4,62.5,30.07,NE,42,1.0,3.5,97,0.04,CLR,OVC,0.27,0.0,WeatherDisplay:10.37,2013-08-15 10:02:00,
2013-08-15 06:07:00,63.4,62.5,30.06,NNW,346,2.8,7.0,97,0.05,RA,OVC,0.27,0.0,WeatherDisplay:10.37,2013-08-15 10:07:00,
2013-08-15 06:12:00,63.4,62.5,30.07,NE,45,1.2,3.5,97,0.04,RA,OVC,0.27,0.0,WeatherDisplay:10.37,2013-08-15 10:12:00,
2013-08-15 06:17:00,63.4,62.5,30.07,NNE,28,1.0,3.0,97,0.05,RA,OVC,0.28,0.0,WeatherDisplay:10.37,2013-08-15 10:17:00,
2013-08-15 06:22:00,63.4,62.5,30.07,NNE,26,2.7,3.5,97,0.05,RA,OVC,0.28,0.0,WeatherDisplay:10.37,2013-08-15 10:22:00,
2013-08-15 06:27:00,63.5,62.6,30.07,ENE,58,0.2,1.1,97,0.04,OVC,,0.29,0.0,WeatherDisplay:10.37,2013-08-15 10:27:00,
2013-08-15 06:32:00,63.5,62.6,30.07,NW,323,1.7,4.0,97,0.05,RA,OVC,0.29,0.0,WeatherDisplay:10.37,2013-08-15 10:32:00,
2013-08-15 06:37:00,63.5,62.6,30.07,ENE,61,1.4,5.0,97,0.04,RA,OVC,0.29,0.0,WeatherDisplay:10.37,2013-08-15 10:37:00,
2013-08-15 06:42:00,63.5,62.6,30.08,NNE,23,1.1,4.6,97,0.05,RA,OVC,0.30,0.0,WeatherDisplay:10.37,2013-08-15 10:42:00,
2013-08-15 06:47:00,63.5,62.6,30.08,ENE,65,1.4,4.6,97,0.04,RA,OVC,0.30,0.0,WeatherDisplay:10.37,2013-08-15 10:47:00,
2013-08-15 06:52:00,63.4,62.5,30.08,NNE,31,2.4,3.5,97,0.05,RA,OVC,0.31,0.0,WeatherDisplay:10.37,2013-08-15 10:52:00,
2013-08-15 06:57:00,63.4,62.5,30.09,NNE,32,0.2,5.0,97,0.05,RA,OVC,0.31,0.0,WeatherDisplay:10.37,2013-08-15 10:57:00,
2013-08-15 07:02:00,63.5,62.6,30.08,NE,40,0.2,2.3,97,0.05,OVC,,0.31,0.0,WeatherDisplay:10.37,2013-08-15 11:02:00,
2013-08-15 07:07:00,63.5,62.6,30.09,NE,47,0.5,3.5,97,0.05,RA,OVC,0.32,0.0,WeatherDisplay:10.37,2013-08-15 11:07:00,
2013-08-15 07:12:00,63.5,62.6,30.08,ESE,105,1.6,3.5,97,0.05,RA,OVC,0.32,0.0,WeatherDisplay:10.37,2013-08-15 11:12:00,
2013-08-15 07:17:00,63.5,62.6,30.08,NE,55,2.4,9.2,97,0.04,OVC,,0.32,0.0,WeatherDisplay:10.37,2013-08-15 11:17:00,
2013-08-15 07:22:00,63.5,62.6,30.08,NNW,346,0.1,3.5,97,0.05,RA,OVC,0.33,0.0,WeatherDisplay:10.37,2013-08-15 11:22:00,
2013-08-15 07:27:00,63.5,62.6,30.08,NE,51,1.9,5.8,97,0.04,RA,OVC,0.33,0.0,WeatherDisplay:10.37,2013-08-15 11:27:00,
2013-08-15 07:32:00,63.5,62.6,30.08,North,355,0.9,3.5,97,0.04,OVC,,0.33,0.0,WeatherDisplay:10.37,2013-08-15 11:32:00,
2013-08-15 07:37:00,63.6,62.7,30.08,NNE,20,3.7,7.0,97,0.03,OVC,,0.33,0.0,WeatherDisplay:10.37,2013-08-15 11:37:00,
2013-08-15 07:42:00,63.6,62.7,30.08,NNE,32,1.0,3.5,97,0.04,RA,OVC,0.34,0.0,WeatherDisplay:10.37,2013-08-15 11:42:00,
2013-08-15 07:47:00,63.6,62.7,30.08,ENE,62,1.7,4.0,97,0.05,RA,OVC,0.35,0.0,WeatherDisplay:10.37,2013-08-15 11:47:00,
2013-08-15 07:52:00,63.7,62.8,30.09,WNW,300,2.0,4.6,97,0.04,RA,OVC,0.35,0.0,WeatherDisplay:10.37,2013-08-15 11:52:00,
2013-08-15 07:57:00,63.7,62.8,30.09,ENE,60,1.6,3.5,97,0.04,OVC,,0.35,0.0,WeatherDisplay:10.37,2013-08-15 11:57:00,
2013-08-15 08:02:00,63.7,62.8,30.08,North,11,0.6,2.3,97,0.05,RA,OVC,0.36,0.0,WeatherDisplay:10.37,2013-08-15 12:02:00,
2013-08-15 08:07:00,63.7,62.8,30.09,NNW,332,2.5,4.6,97,0.04,RA,OVC,0.36,0.0,WeatherDisplay:10.37,2013-08-15 12:07:00,
2013-08-15 08:12:00,63.6,62.7,30.09,East,83,1.4,3.5,97,0.04,OVC,,0.36,0.0,WeatherDisplay:10.37,2013-08-15 12:12:00,
2013-08-15 08:17:00,63.5,62.6,30.10,NNW,342,1.8,6.9,97,0.04,OVC,,0.36,0.0,WeatherDisplay:10.37,2013-08-15 12:17:00,
2013-08-15 08:22:00,63.4,62.5,30.10,WNW,292,5.2,8.1,97,0.03,OVC,,0.36,0.0,WeatherDisplay:10.37,2013-08-15 12:22:00,
2013-08-15 08:27:00,63.2,62.3,30.11,SW,221,3.6,8.1,97,0.03,OVC,,0.36,0.0,WeatherDisplay:10.37,2013-08-15 12:27:00,
2013-08-15 08:32:00,63.2,62.3,30.10,NNE,31,2.9,3.5,97,0.03,OVC,,0.36,0.0,WeatherDisplay:10.37,2013-08-15 12:32:00,
2013-08-15 08:37:00,63.2,62.3,30.10,NNE,19,0.3,2.3,97,0.03,OVC,,0.36,0.0,WeatherDisplay:10.37,2013-08-15 12:37:00,
2013-08-15 08:42:00,63.2,62.3,30.09,ENE,77,0.9,2.3,97,0.02,OVC,,0.36,0.0,WeatherDisplay:10.37,2013-08-15 12:42:00,
2013-08-15 08:48:00,63.3,62.4,30.09,NNE,24,1.8,4.6,97,0.01,OVC,,0.36,0.0,WeatherDisplay:10.37,2013-08-15 12:48:00,
2013-08-15 08:53:00,63.3,62.4,30.09,ENE,69,2.0,4.6,97,0.01,OVC,,0.36,0.0,WeatherDisplay:10.37,2013-08-15 12:53:00,
2013-08-15 08:58:00,63.4,62.5,30.09,NNW,344,0.7,3.5,97,0.01,OVC,,0.36,0.0,WeatherDisplay:10.37,2013-08-15 12:58:00,
2013-08-15 09:03:00,63.4,62.5,30.09,ENE,71,1.8,3.5,97,0.00,OVC,,0.36,0.0,WeatherDisplay:10.37,2013-08-15 13:03:00,
2013-08-15 09:08:00,63.4,62.5,30.10,ENE,57,4.3,6.9,97,0.00,OVC,,0.36,0.0,WeatherDisplay:10.37,2013-08-15 13:08:00,
2013-08-15 09:13:00,63.5,62.6,30.10,ENE,71,3.5,6.9,97,0.00,OVC,,0.36,0.0,WeatherDisplay:10.37,2013-08-15 13:13:00,
2013-08-15 09:18:00,63.6,62.7,30.10,NNE,33,3.8,8.1,97,0.01,RA,OVC,0.37,0.0,WeatherDisplay:10.37,2013-08-15 13:18:00,
2013-08-15 09:23:00,63.6,62.7,30.10,NNE,24,4.3,9.2,97,0.01,RA,OVC,0.37,0.0,WeatherDisplay:10.37,2013-08-15 13:23:00,
2013-08-15 09:28:00,63.7,62.8,30.10,NE,51,4.4,8.1,97,0.01,OVC,,0.37,0.0,WeatherDisplay:10.37,2013-08-15 13:28:00,
2013-08-15 09:33:00,63.8,62.9,30.10,NE,46,1.5,4.6,97,0.02,RA,OVC,0.38,0.0,WeatherDisplay:10.37,2013-08-15 13:33:00,
2013-08-15 09:38:00,63.9,63.0,30.10,NNW,340,6.1,8.1,97,0.03,RA,OVC,0.39,0.0,WeatherDisplay:10.37,2013-08-15 13:38:00,
2013-08-15 09:43:00,63.9,63.0,30.10,ENE,58,5.4,8.1,97,0.04,RA,OVC,0.40,0.0,WeatherDisplay:10.37,2013-08-15 13:43:00,
2013-08-15 09:48:00,64.1,63.2,30.09,NNE,23,4.1,9.2,97,0.05,RA,OVC,0.41,0.0,WeatherDisplay:10.37,2013-08-15 13:48:00,
2013-08-15 09:53:00,64.1,63.2,30.09,ENE,59,4.4,6.9,97,0.05,RA,OVC,0.41,0.0,WeatherDisplay:10.37,2013-08-15 13:53:00,
2013-08-15 09:58:00,64.1,63.2,30.09,NE,39,2.8,4.0,97,0.05,OVC,,0.41,0.0,WeatherDisplay:10.37,2013-08-15 13:58:00,
2013-08-15 10:03:00,64.2,63.3,30.09,NNE,32,1.6,4.6,97,0.05,OVC,,0.41,0.0,WeatherDisplay:10.37,2013-08-15 14:03:00,
2013-08-15 10:08:00,64.3,63.4,30.09,North,5,1.6,3.5,97,0.06,RA,OVC,0.42,0.0,WeatherDisplay:10.37,2013-08-15 14:08:00,
2013-08-15 10:13:00,64.4,63.5,30.09,NE,55,5.3,8.1,97,0.06,RA,OVC,0.42,0.0,WeatherDisplay:10.37,2013-08-15 14:13:00,
2013-08-15 10:18:00,64.5,63.6,30.09,NE,43,4.0,8.1,97,0.05,OVC,,0.42,0.0,WeatherDisplay:10.37,2013-08-15 14:18:00,
2013-08-15 10:23:00,64.7,63.8,30.10,ENE,74,1.0,2.3,97,0.05,OVC,,0.42,0.0,WeatherDisplay:10.37,2013-08-15 14:23:00,
2013-08-15 10:28:00,64.7,63.8,30.10,NE,54,1.8,3.5,97,0.05,OVC,,0.42,0.0,WeatherDisplay:10.37,2013-08-15 14:28:00,
2013-08-15 10:33:00,64.8,63.9,30.10,NE,48,1.5,3.5,97,0.05,RA,OVC,0.43,0.0,WeatherDisplay:10.37,2013-08-15 14:33:00,
2013-08-15 10:38:00,64.8,63.9,30.10,NE,49,4.3,8.1,97,0.06,RA,OVC,0.45,0.0,WeatherDisplay:10.37,2013-08-15 14:38:00,
2013-08-15 10:43:00,64.9,64.0,30.10,NE,34,2.3,5.0,97,0.05,RA,OVC,0.45,0.0,WeatherDisplay:10.37,2013-08-15 14:43:00,
2013-08-15 10:48:00,64.9,64.0,30.09,NE,37,2.0,3.5,97,0.05,RA,OVC,0.46,0.0,WeatherDisplay:10.37,2013-08-15 14:48:00,
2013-08-15 10:54:00,65.0,64.1,30.09,North,9,1.6,4.0,97,0.05,RA,OVC,0.47,0.0,WeatherDisplay:10.37,2013-08-15 14:54:00,
2013-08-15 10:59:00,65.1,64.2,30.10,West,278,2.5,4.0,97,0.06,RA,OVC,0.47,0.0,WeatherDisplay:10.37,2013-08-15 14:59:00,
2013-08-15 11:04:00,65.2,64.3,30.10,ENE,67,1.5,2.3,97,0.07,RA,OVC,0.49,0.0,WeatherDisplay:10.37,2013-08-15 15:04:00,
2013-08-15 11:09:00,65.2,64.6,30.10,NNW,334,0.7,3.5,98,0.07,RA,OVC,0.49,0.0,WeatherDisplay:10.37,2013-08-15 15:09:00,
2013-08-15 11:15:00,65.2,64.3,30.11,NE,42,3.0,3.0,97,0.07,OVC,,0.49,0.0,WeatherDisplay:10.37,2013-08-15 15:15:00,
2013-08-15 11:20:00,65.2,64.3,30.10,North,9,1.3,3.5,97,0.08,RA,OVC,0.50,0.0,WeatherDisplay:10.37,2013-08-15 15:20:00,
2013-08-15 11:25:00,65.4,64.8,30.10,NNE,13,1.8,6.9,98,0.08,RA,OVC,0.51,0.0,WeatherDisplay:10.37,2013-08-15 15:25:00,
2013-08-15 11:30:00,65.4,64.8,30.11,NW,319,1.3,3.5,98,0.09,RA,OVC,0.51,0.0,WeatherDisplay:10.37,2013-08-15 15:30:00,
2013-08-15 11:35:00,65.4,64.5,30.11,NNW,336,0.1,2.3,97,0.09,RA,OVC,0.53,0.0,WeatherDisplay:10.37,2013-08-15 15:35:00,
2013-08-15 11:40:00,65.3,64.4,30.11,NE,50,1.2,3.5,97,0.09,RA,OVC,0.54,0.0,WeatherDisplay:10.37,2013-08-15 15:40:00,
2013-08-15 11:45:00,65.4,64.5,30.11,NW,313,1.4,2.3,97,0.10,RA,OVC,0.55,0.0,WeatherDisplay:10.37,2013-08-15 15:45:00,
2013-08-15 11:50:00,65.4,64.5,30.11,NW,326,0.1,2.3,97,0.10,RA,OVC,0.56,0.0,WeatherDisplay:10.37,2013-08-15 15:50:00,
2013-08-15 11:55:00,65.5,64.9,30.11,NW,326,0.7,2.3,98,0.09,RA,OVC,0.56,0.0,WeatherDisplay:10.37,2013-08-15 15:55:00,
2013-08-15 12:00:00,65.5,64.6,30.11,NE,46,0.9,3.5,97,0.10,RA,OVC,0.57,0.0,WeatherDisplay:10.37,2013-08-15 16:00:00,
2013-08-15 12:05:00,65.6,64.7,30.11,North,10,0.2,1.1,97,0.08,RA,OVC,0.57,0.0,WeatherDisplay:10.37,2013-08-15 16:05:00,
2013-08-15 12:10:00,65.7,65.1,30.11,NW,307,1.1,3.5,98,0.08,OVC,,0.57,0.0,WeatherDisplay:10.37,2013-08-15 16:10:00,
2013-08-15 12:16:00,65.9,65.3,30.11,East,96,0.8,3.5,98,0.08,OVC,,0.57,0.0,WeatherDisplay:10.37,2013-08-15 16:16:00,
2013-08-15 12:21:00,66.1,65.5,30.11,NNE,13,0.3,2.3,98,0.07,OVC,,0.57,0.0,WeatherDisplay:10.37,2013-08-15 16:21:00,
2013-08-15 12:26:00,66.1,65.5,30.11,North,5,0.2,1.1,98,0.06,OVC,,0.57,0.0,WeatherDisplay:10.37,2013-08-15 16:26:00,
2013-08-15 12:31:00,66.1,65.5,30.11,North,360,0.7,3.5,98,0.06,OVC,,0.57,0.0,WeatherDisplay:10.37,2013-08-15 16:31:00,
2013-08-15 12:36:00,66.1,65.5,30.10,NNW,338,0.4,2.3,98,0.04,OVC,,0.57,0.0,WeatherDisplay:10.37,2013-08-15 16:36:00,
2013-08-15 12:41:00,66.0,65.1,30.10,ENE,64,1.3,3.5,97,0.04,RA,OVC,0.58,0.0,WeatherDisplay:10.37,2013-08-15 16:41:00,
2013-08-15 12:46:00,66.0,65.1,30.10,NE,48,0.9,3.5,97,0.03,RA,OVC,0.59,0.0,WeatherDisplay:10.37,2013-08-15 16:46:00,
2013-08-15 12:51:00,66.2,65.6,30.10,NE,53,0.3,3.5,98,0.03,RA,OVC,0.59,0.0,WeatherDisplay:10.37,2013-08-15 16:51:00,
2013-08-15 12:56:00,66.5,65.9,30.10,NW,305,1.5,3.5,98,0.03,RA,OVC,0.59,0.0,WeatherDisplay:10.37,2013-08-15 16:56:00,
2013-08-15 13:01:00,66.4,65.5,30.10,NNE,15,2.7,4.0,97,0.02,OVC,,0.59,0.0,WeatherDisplay:10.37,2013-08-15 17:01:00,
2013-08-15 13:06:00,66.5,65.6,30.09,ENE,70,0.7,3.5,97,0.02,OVC,,0.59,0.0,WeatherDisplay:10.37,2013-08-15 17:06:00,
2013-08-15 13:11:00,66.5,65.6,30.09,WNW,295,3.8,4.6,97,0.02,OVC,,0.59,0.0,WeatherDisplay:10.37,2013-08-15 17:11:00,
2013-08-15 13:16:00,66.4,65.5,30.09,ENE,67,2.3,5.8,97,0.02,OVC,,0.59,0.0,WeatherDisplay:10.37,2013-08-15 17:16:00,
2013-08-15 13:21:00,66.3,65.4,30.09,NNW,333,3.6,9.2,97,0.02,OVC,,0.59,0.0,WeatherDisplay:10.37,2013-08-15 17:21:00,
2013-08-15 13:27:00,66.3,65.4,30.09,North,350,2.0,4.6,97,0.03,RA,OVC,0.60,0.0,WeatherDisplay:10.37,2013-08-15 17:27:00,
2013-08-15 13:32:00,66.3,65.4,30.09,ENE,59,1.1,4.0,97,0.03,RA,OVC,0.60,0.0,WeatherDisplay:10.37,2013-08-15 17:32:00,
2013-08-15 13:37:00,66.2,65.3,30.09,NNE,23,0.1,4.6,97,0.03,OVC,,0.60,0.0,WeatherDisplay:10.37,2013-08-15 17:37:00,
2013-08-15 13:42:00,66.2,65.3,30.08,ENE,68,1.5,3.5,97,0.02,OVC,,0.60,0.0,WeatherDisplay:10.37,2013-08-15 17:42:00,
2013-08-15 13:49:00,66.4,65.5,30.08,ENE,59,3.0,3.5,97,0.01,OVC,,0.60,0.0,WeatherDisplay:10.37,2013-08-15 17:49:00,
2013-08-15 13:54:00,66.6,65.7,30.08,East,80,0.6,2.3,97,0.01,OVC,,0.60,0.0,WeatherDisplay:10.37,2013-08-15 17:54:00,
2013-08-15 13:59:00,66.8,65.9,30.08,NE,44,3.4,6.9,97,0.01,OVC,,0.60,0.0,WeatherDisplay:10.37,2013-08-15 17:59:00,
2013-08-15 14:04:00,66.8,65.9,30.08,NE,53,2.6,4.6,97,0.01,OVC,,0.60,0.0,WeatherDisplay:10.37,2013-08-15 18:04:00,
2013-08-15 14:09:00,67.4,66.5,30.07,ENE,65,1.5,4.6,97,0.01,OVC,,0.60,0.0,WeatherDisplay:10.37,2013-08-15 18:09:00,
2013-08-15 14:14:00,67.7,66.8,30.07,ENE,59,3.2,4.6,97,0.01,OVC,,0.60,0.0,WeatherDisplay:10.37,2013-08-15 18:14:00,
2013-08-15 14:19:00,68.0,66.8,30.07,NE,52,6.8,9.2,96,0.01,OVC,,0.60,0.0,WeatherDisplay:10.37,2013-08-15 18:19:00,
2013-08-15 14:25:00,68.6,67.4,30.07,ENE,74,1.8,8.1,96,0.00,OVC,,0.60,0.0,WeatherDisplay:10.37,2013-08-15 18:25:00,
2013-08-15 14:30:00,68.6,66.8,30.07,NE,45,5.7,11.5,94,0.00,OVC,,0.60,0.0,WeatherDisplay:10.37,2013-08-15 18:30:00,
2013-08-15 14:35:00,68.7,66.6,30.07,NE,49,6.2,8.1,93,0.00,OVC,,0.60,0.0,WeatherDisplay:10.37,2013-08-15 18:35:00,
2013-08-15 14:40:00,68.8,66.7,30.08,NE,52,2.7,9.2,93,0.00,OVC,,0.60,0.0,WeatherDisplay:10.37,2013-08-15 18:40:00,
2013-08-15 14:45:00,69.0,66.9,30.07,NNE,23,5.8,9.2,93,0.00,OVC,,0.60,0.0,WeatherDisplay:10.37,2013-08-15 18:45:00,
2013-08-15 14:50:00,69.3,66.9,30.07,ENE,61,6.9,10.4,92,0.00,OVC,,0.60,0.0,WeatherDisplay:10.37,2013-08-15 18:50:00,
2013-08-15 14:56:00,69.5,67.1,30.07,NE,38,5.6,10.4,92,0.00,OVC,,0.60,0.0,WeatherDisplay:10.37,2013-08-15 18:56:00,
2013-08-15 15:01:00,69.5,66.8,30.07,ENE,57,7.3,10.4,91,0.00,OVC,,0.60,0.0,WeatherDisplay:10.37,2013-08-15 19:01:00,
2013-08-15 15:06:00,69.4,67.0,30.07,ENE,59,3.9,6.9,92,0.00,OVC,,0.60,0.0,WeatherDisplay:10.37,2013-08-15 19:06:00,
2013-08-15 15:11:00,69.4,67.0,30.07,North,360,4.5,9.2,92,0.00,OVC,,0.60,0.0,WeatherDisplay:10.37,2013-08-15 19:11:00,
2013-08-15 15:16:00,69.2,66.8,30.07,NNE,16,2.9,5.8,92,0.00,OVC,,0.60,0.0,WeatherDisplay:10.37,2013-08-15 19:16:00,
2013-08-15 15:21:00,69.3,66.9,30.06,NE,38,1.3,3.5,92,0.00,OVC,,0.60,0.0,WeatherDisplay:10.37,2013-08-15 19:21:00,
2013-08-15 15:26:00,69.4,66.7,30.06,NE,47,3.8,6.9,91,0.00,OVC,,0.60,0.0,WeatherDisplay:10.37,2013-08-15 19:26:00,
2013-08-15 15:31:00,69.4,66.3,30.06,East,82,3.5,4.6,90,0.00,OVC,,0.60,0.0,WeatherDisplay:10.37,2013-08-15 19:31:00,
2013-08-15 15:36:00,69.3,66.2,30.06,NNW,344,2.7,3.5,90,0.00,OVC,,0.60,0.0,WeatherDisplay:10.37,2013-08-15 19:36:00,
2013-08-15 15:41:00,69.4,66.3,30.06,ENE,59,1.8,3.5,90,0.00,OVC,,0.60,0.0,WeatherDisplay:10.37,2013-08-15 19:41:00,
2013-08-15 15:46:00,69.5,66.1,30.06,ENE,71,2.3,7.0,89,0.00,OVC,,0.60,0.0,WeatherDisplay:10.37,2013-08-15 19:46:00,
2013-08-15 15:51:00,69.7,66.0,30.06,ENE,63,1.4,3.5,88,0.00,OVC,,0.60,0.0,WeatherDisplay:10.37,2013-08-15 19:51:00,
2013-08-15 15:56:00,69.9,66.2,30.06,NE,48,2.2,4.6,88,0.00,OVC,,0.60,0.0,WeatherDisplay:10.37,2013-08-15 19:56:00,
2013-08-15 16:03:00,70.3,66.6,30.06,ENE,66,2.8,5.0,88,0.00,OVC,,0.60,0.0,WeatherDisplay:10.37,2013-08-15 20:03:00,
2013-08-15 16:09:00,70.4,66.0,30.06,ENE,77,2.2,8.1,86,0.00,OVC,,0.60,0.0,WeatherDisplay:10.37,2013-08-15 20:09:00,
2013-08-15 16:14:00,70.5,66.4,30.05,NE,49,3.0,3.5,87,0.00,OVC,,0.60,0.0,WeatherDisplay:10.37,2013-08-15 20:14:00,
2013-08-15 16:20:00,70.6,66.2,30.05,NNE,31,3.1,4.6,86,0.00,OVC,,0.60,0.0,WeatherDisplay:10.37,2013-08-15 20:20:00,
2013-08-15 16:25:00,70.6,65.9,30.05,ENE,63,2.8,4.6,85,0.00,OVC,,0.60,0.0,WeatherDisplay:10.37,2013-08-15 20:25:00,
2013-08-15 16:30:00,70.5,65.8,30.05,NE,54,3.9,8.1,85,0.00,OVC,,0.60,0.0,WeatherDisplay:10.37,2013-08-15 20:30:00,
2013-08-15 16:35:00,70.5,66.1,30.05,NE,52,2.1,8.1,86,0.00,OVC,,0.60,0.0,WeatherDisplay:10.37,2013-08-15 20:35:00,
2013-08-15 16:40:00,70.6,66.2,30.05,ENE,63,2.9,10.4,86,0.00,OVC,,0.60,0.0,WeatherDisplay:10.37,2013-08-15 20:40:00,
2013-08-15 16:45:00,70.5,65.8,30.06,NNW,333,1.3,3.5,85,0.00,OVC,,0.60,0.0,WeatherDisplay:10.37,2013-08-15 20:45:00,
2013-08-15 16:50:00,70.3,65.6,30.06,NNE,26,0.4,1.1,85,0.00,OVC,,0.60,0.0,WeatherDisplay:10.37,2013-08-15 20:50:00,
2013-08-15 16:56:00,70.2,65.5,30.06,North,355,2.0,5.8,85,0.00,OVC,,0.60,0.0,WeatherDisplay:10.37,2013-08-15 20:56:00,
2013-08-15 17:01:00,70.1,65.7,30.06,NW,306,0.4,1.1,86,0.00,OVC,,0.60,0.0,WeatherDisplay:10.37,2013-08-15 21:01:00,
2013-08-15 17:06:00,70.1,65.7,30.06,NNE,13,0.3,1.0,86,0.00,OVC,,0.60,0.0,WeatherDisplay:10.37,2013-08-15 21:06:00,
2013-08-15 17:11:00,70.1,65.7,30.06,NE,53,0.2,1.0,86,0.00,OVC,,0.60,0.0,WeatherDisplay:10.37,2013-08-15 21:11:00,
2013-08-15 17:16:00,70.0,65.3,30.06,East,82,0.5,2.3,85,0.00,OVC,,0.60,0.0,WeatherDisplay:10.37,2013-08-15 21:16:00,
2013-08-15 17:21:00,69.8,65.1,30.06,NE,50,1.2,3.5,85,0.00,OVC,,0.60,0.0,WeatherDisplay:10.37,2013-08-15 21:21:00,
2013-08-15 17:27:00,69.7,65.0,30.06,ENE,62,0.1,1.1,85,0.00,OVC,,0.60,0.0,WeatherDisplay:10.37,2013-08-15 21:27:00,
2013-08-15 17:33:00,69.4,64.7,30.06,North,355,1.2,3.5,85,0.00,OVC,,0.60,0.0,WeatherDisplay:10.37,2013-08-15 21:33:00,
2013-08-15 17:38:00,69.2,64.5,30.06,NE,35,0.4,2.3,85,0.00,OVC,,0.60,0.0,WeatherDisplay:10.37,2013-08-15 21:38:00,
2013-08-15 17:44:00,69.1,64.4,30.06,NNE,14,0.3,2.3,85,0.00,OVC,,0.60,0.0,WeatherDisplay:10.37,2013-08-15 21:44:00,
2013-08-15 17:49:00,69.0,64.6,30.06,East,82,0.1,1.1,86,0.00,OVC,,0.60,0.0,WeatherDisplay:10.37,2013-08-15 21:49:00,
2013-08-15 17:54:00,69.0,64.6,30.06,NNE,30,0.1,1.0,86,0.00,OVC,,0.60,0.0,WeatherDisplay:10.37,2013-08-15 21:54:00,
2013-08-15 17:59:00,68.8,64.4,30.06,WNW,292,0.8,1.1,86,0.00,OVC,,0.60,0.0,WeatherDisplay:10.37,2013-08-15 21:59:00,
2013-08-15 18:04:00,68.6,64.6,30.06,NNE,32,0.4,3.5,87,0.00,OVC,,0.60,0.0,WeatherDisplay:10.37,2013-08-15 22:04:00,
2013-08-15 18:09:00,68.5,64.5,30.06,NNE,13,0.5,3.5,87,0.00,OVC,,0.60,0.0,WeatherDisplay:10.37,2013-08-15 22:09:00,
2013-08-15 18:14:00,68.3,64.3,30.06,WNW,302,1.5,2.3,87,0.00,OVC,,0.60,0.0,WeatherDisplay:10.37,2013-08-15 22:14:00,
2013-08-15 18:26:00,68.1,64.4,30.06,ESE,114,1.2,3.5,88,0.00,RA,OVC,0.60,0.0,WeatherDisplay:10.37,2013-08-15 22:26:00,
2013-08-15 18:31:00,68.1,64.1,30.06,NE,41,0.5,2.3,87,0.00,RA,OVC,0.60,0.0,WeatherDisplay:10.37,2013-08-15 22:31:00,
2013-08-15 18:36:00,68.0,64.0,30.06,NE,49,0.6,2.3,87,0.00,OVC,,0.60,0.0,WeatherDisplay:10.37,2013-08-15 22:36:00,
2013-08-15 18:41:00,67.8,63.8,30.05,SSE,150,0.3,1.1,87,0.00,OVC,,0.60,0.0,WeatherDisplay:10.37,2013-08-15 22:41:00,
2013-08-15 18:46:00,67.8,63.8,30.06,ESE,102,0.0,0.0,87,0.00,OVC,,0.60,0.0,WeatherDisplay:10.37,2013-08-15 22:46:00,
2013-08-15 18:52:00,67.7,63.7,30.06,ENE,74,0.3,0.0,87,0.00,OVC,,0.60,0.0,WeatherDisplay:10.37,2013-08-15 22:52:00,
2013-08-15 18:57:00,67.6,63.6,30.06,ENE,71,0.0,1.1,87,0.00,OVC,,0.60,0.0,WeatherDisplay:10.37,2013-08-15 22:57:00,
2013-08-15 19:02:00,67.5,63.5,30.06,ENE,71,0.0,0.0,87,0.00,OVC,,0.60,0.0,WeatherDisplay:10.37,2013-08-15 23:02:00,
2013-08-15 19:07:00,67.5,63.8,30.06,ENE,70,0.0,0.0,88,0.00,OVC,,0.60,0.0,WeatherDisplay:10.37,2013-08-15 23:07:00,
2013-08-15 19:12:00,67.4,63.7,30.06,ENE,69,0.0,0.0,88,0.00,OVC,,0.60,0.0,WeatherDisplay:10.37,2013-08-15 23:12:00,
2013-08-15 19:17:00,67.4,63.7,30.06,ENE,69,0.0,0.0,88,0.00,OVC,,0.60,0.0,WeatherDisplay:10.37,2013-08-15 23:17:00,
2013-08-15 19:22:00,67.3,63.6,30.06,ENE,68,0.0,0.0,88,0.00,OVC,,0.60,0.0,WeatherDisplay:10.37,2013-08-15 23:22:00,
2013-08-15 19:27:00,67.3,63.6,30.06,ENE,68,0.0,0.0,88,0.00,OVC,,0.60,0.0,WeatherDisplay:10.37,2013-08-15 23:27:00,
2013-08-15 19:32:00,67.2,63.5,30.07,NNW,347,0.0,0.0,88,0.00,OVC,,0.60,0.0,WeatherDisplay:10.37,2013-08-15 23:32:00,
2013-08-15 19:42:00,67.1,63.7,30.07,NE,53,0.2,0.0,89,0.00,OVC,,0.60,0.0,WeatherDisplay:10.37,2013-08-15 23:42:00,
2013-08-15 19:47:00,67.0,64.0,30.08,NE,50,0.0,0.0,90,0.00,OVC,,0.60,0.0,WeatherDisplay:10.37,2013-08-15 23:47:00,
2013-08-15 19:52:00,66.9,63.9,30.08,NE,46,1.0,3.5,90,0.00,OVC,,0.60,0.0,WeatherDisplay:10.37,2013-08-15 23:52:00,
2013-08-15 19:57:00,66.8,64.1,30.07,NE,46,0.0,0.0,91,0.00,OVC,,0.60,0.0,WeatherDisplay:10.37,2013-08-15 23:57:00,
2013-08-15 20:04:00,66.6,64.2,30.08,ENE,77,0.0,0.0,92,0.00,CLR,OVC,0.60,0.0,WeatherDisplay:10.37,2013-08-16 00:04:00,
2013-08-15 20:09:00,66.4,64.3,30.08,ENE,76,0.0,0.0,93,0.00,CLR,OVC,0.60,0.0,WeatherDisplay:10.37,2013-08-16 00:09:00,
2013-08-15 20:14:00,66.3,64.2,30.08,ENE,76,0.0,0.0,93,0.01,RA,OVC,0.61,0.0,WeatherDisplay:10.37,2013-08-16 00:14:00,
2013-08-15 20:19:00,66.2,64.4,30.08,West,276,0.0,0.0,94,0.01,RA,OVC,0.61,0.0,WeatherDisplay:10.37,2013-08-16 00:19:00,
2013-08-15 20:24:00,66.1,64.3,30.08,NNW,336,0.0,0.0,94,0.01,CLR,OVC,0.61,0.0,WeatherDisplay:10.37,2013-08-16 00:24:00,
2013-08-15 20:29:00,66.0,64.2,30.08,NNE,26,0.0,0.0,94,0.01,CLR,OVC,0.61,0.0,WeatherDisplay:10.37,2013-08-16 00:29:00,
2013-08-15 20:34:00,65.9,64.1,30.08,NW,318,0.6,2.3,94,0.01,CLR,OVC,0.61,0.0,WeatherDisplay:10.37,2013-08-16 00:34:00,
2013-08-15 20:39:00,65.9,64.4,30.08,NNE,25,0.0,2.3,95,0.01,CLR,OVC,0.61,0.0,WeatherDisplay:10.37,2013-08-16 00:39:00,
2013-08-15 20:44:00,65.8,64.3,30.08,NNE,24,0.4,2.0,95,0.01,CLR,OVC,0.61,0.0,WeatherDisplay:10.37,2013-08-16 00:44:00,
2013-08-15 20:49:00,65.8,64.3,30.08,NE,40,0.0,0.0,95,0.02,RA,OVC,0.62,0.0,WeatherDisplay:10.37,2013-08-16 00:49:00,
2013-08-15 20:54:00,65.7,64.2,30.08,NE,39,1.1,3.5,95,0.02,RA,OVC,0.62,0.0,WeatherDisplay:10.37,2013-08-16 00:54:00,
2013-08-15 20:59:00,65.6,64.1,30.08,North,355,2.0,3.5,95,0.02,CLR,OVC,0.62,0.0,WeatherDisplay:10.37,2013-08-16 00:59:00,
2013-08-15 21:05:00,65.5,64.0,30.08,ENE,61,2.6,3.5,95,0.02,CLR,OVC,0.62,0.0,WeatherDisplay:10.37,2013-08-16 01:05:00,
2013-08-15 21:10:00,65.5,64.0,30.08,ENE,63,0.1,3.0,95,0.02,CLR,OVC,0.62,0.0,WeatherDisplay:10.37,2013-08-16 01:10:00,
2013-08-15 21:15:00,65.3,63.8,30.08,NE,36,4.7,9.0,95,0.01,CLR,OVC,0.62,0.0,WeatherDisplay:10.37,2013-08-16 01:15:00,
2013-08-15 21:20:00,65.3,63.8,30.08,NNE,32,3.1,6.9,95,0.01,CLR,OVC,0.62,0.0,WeatherDisplay:10.37,2013-08-16 01:20:00,
2013-08-15 21:25:00,65.2,63.7,30.09,NNW,347,3.4,5.8,95,0.01,CLR,OVC,0.62,0.0,WeatherDisplay:10.37,2013-08-16 01:25:00,
2013-08-15 21:31:00,65.2,63.7,30.09,NE,38,0.8,4.0,95,0.01,CLR,OVC,0.62,0.0,WeatherDisplay:10.37,2013-08-16 01:31:00,
2013-08-15 21:36:00,65.2,63.7,30.09,NE,50,0.3,1.1,95,0.02,RA,OVC,0.63,0.0,WeatherDisplay:10.37,2013-08-16 01:36:00,
2013-08-15 21:41:00,65.2,63.7,30.09,North,11,2.0,3.5,95,0.02,RA,OVC,0.63,0.0,WeatherDisplay:10.37,2013-08-16 01:41:00,
2013-08-15 21:46:00,65.1,63.3,30.09,NNE,24,1.0,5.8,94,0.02,,OVC,0.63,0.0,WeatherDisplay:10.37,2013-08-16 01:46:00,
2013-08-15 21:51:00,65.0,63.5,30.10,NNE,24,0.0,0.0,95,0.01,CLR,OVC,0.63,0.0,WeatherDisplay:10.37,2013-08-16 01:51:00,
2013-08-15 21:56:00,65.0,63.5,30.10,NNE,24,0.2,1.0,95,0.01,CLR,OVC,0.63,0.0,WeatherDisplay:10.37,2013-08-16 01:56:00,
2013-08-15 22:01:00,65.0,63.5,30.10,NNE,26,0.4,1.0,95,0.01,CLR,OVC,0.63,0.0,WeatherDisplay:10.37,2013-08-16 02:01:00,
2013-08-15 22:06:00,65.0,63.5,30.10,NNE,26,0.0,0.0,95,0.01,CLR,OVC,0.63,0.0,WeatherDisplay:10.37,2013-08-16 02:06:00,
2013-08-15 22:11:00,65.0,63.5,30.10,NNE,26,0.0,0.0,95,0.01,CLR,OVC,0.63,0.0,WeatherDisplay:10.37,2013-08-16 02:11:00,
2013-08-15 22:16:00,65.0,63.5,30.10,NNE,26,0.0,0.0,95,0.01,CLR,OVC,0.63,0.0,WeatherDisplay:10.37,2013-08-16 02:16:00,
2013-08-15 22:21:00,65.0,63.8,30.10,NNE,26,0.0,0.0,96,0.01,CLR,OVC,0.63,0.0,WeatherDisplay:10.37,2013-08-16 02:21:00,
2013-08-15 22:26:00,65.0,63.8,30.10,NNE,26,0.0,0.0,96,0.01,CLR,OVC,0.63,0.0,WeatherDisplay:10.37,2013-08-16 02:26:00,
2013-08-15 22:31:00,65.0,63.8,30.10,NNE,26,0.0,0.0,96,0.01,CLR,OVC,0.63,0.0,WeatherDisplay:10.37,2013-08-16 02:31:00,
2013-08-15 22:36:00,65.0,63.8,30.10,NNE,26,0.0,0.0,96,0.00,CLR,OVC,0.63,0.0,WeatherDisplay:10.37,2013-08-16 02:36:00,
2013-08-15 22:42:00,65.0,63.8,30.10,NNE,26,0.0,0.0,96,0.00,CLR,OVC,0.63,0.0,WeatherDisplay:10.37,2013-08-16 02:42:00,
2013-08-15 22:47:00,65.0,63.8,30.10,NNE,26,0.4,3.5,96,0.00,CLR,OVC,0.63,0.0,WeatherDisplay:10.37,2013-08-16 02:47:00,
2013-08-15 22:52:00,65.0,63.8,30.10,NNE,26,0.0,0.0,96,0.00,CLR,OVC,0.63,0.0,WeatherDisplay:10.37,2013-08-16 02:52:00,
2013-08-15 22:57:00,65.0,63.8,30.10,NNE,26,0.0,0.0,96,0.00,CLR,OVC,0.63,0.0,WeatherDisplay:10.37,2013-08-16 02:57:00,
2013-08-15 23:02:00,65.0,63.8,30.10,NNE,26,0.0,0.0,96,0.00,CLR,OVC,0.63,0.0,WeatherDisplay:10.37,2013-08-16 03:02:00,
2013-08-15 23:07:00,65.1,63.9,30.10,NNE,16,0.1,2.0,96,0.00,CLR,OVC,0.63,0.0,WeatherDisplay:10.37,2013-08-16 03:07:00,
2013-08-15 23:12:00,65.0,63.8,30.10,North,11,0.4,2.3,96,0.00,CLR,OVC,0.63,0.0,WeatherDisplay:10.37,2013-08-16 03:12:00,
2013-08-15 23:17:00,65.0,63.8,30.10,NW,310,0.1,1.1,96,0.00,CLR,OVC,0.63,0.0,WeatherDisplay:10.37,2013-08-16 03:17:00,
2013-08-15 23:22:00,65.0,63.8,30.11,NW,309,0.1,1.1,96,0.00,CLR,OVC,0.63,0.0,WeatherDisplay:10.37,2013-08-16 03:22:00,
2013-08-15 23:27:00,65.0,63.8,30.10,NW,320,0.1,2.3,96,0.00,CLR,OVC,0.63,0.0,WeatherDisplay:10.37,2013-08-16 03:27:00,
2013-08-15 23:32:00,65.0,63.8,30.10,NNW,331,0.4,1.1,96,0.00,CLR,OVC,0.63,0.0,WeatherDisplay:10.37,2013-08-16 03:32:00,
2013-08-15 23:37:00,65.0,63.8,30.10,NNW,331,0.0,0.0,96,0.00,CLR,OVC,0.63,0.0,WeatherDisplay:10.37,2013-08-16 03:37:00,
2013-08-15 23:42:00,65.0,63.8,30.10,North,5,0.0,0.0,96,0.00,CLR,OVC,0.63,0.0,WeatherDisplay:10.37,2013-08-16 03:42:00,
2013-08-15 23:47:00,64.9,63.7,30.09,NNE,31,0.0,2.3,96,0.00,CLR,OVC,0.63,0.0,WeatherDisplay:10.37,2013-08-16 03:47:00,
2013-08-15 23:52:00,65.0,63.8,30.09,NNE,31,0.3,1.1,96,0.00,CLR,OVC,0.63,0.0,WeatherDisplay:10.37,2013-08-16 03:52:00,
2013-08-15 23:57:00,65.0,63.8,30.09,NNE,31,0.0,1.1,96,0.00,CLR,OVC,0.63,0.0,WeatherDisplay:10.37,2013-08-16 03:57:00,